Fontana Observed Data For Previous 48 Hours

Caption
Day and Hour Reservoir Elevation (behind dam)* Tailwater Elevation (below dam)* Average Hourly Discharge*
4/22/2018 2 AM EDT 1,684.79 1,275.03 0
4/22/2018 3 AM EDT 1,684.81 1,275.05 0
4/22/2018 4 AM EDT 1,684.85 1,275.06 0
4/22/2018 5 AM EDT 1,684.88 1,275.08 0
4/22/2018 6 AM EDT 1,684.91 1,274.81 0
4/22/2018 7 AM EDT 1,684.93 1,274.64 0
4/22/2018 8 AM EDT 1,684.96 1,274.43 0
4/22/2018 9 AM EDT 1,685.00 1,274.22 0
4/22/2018 10 AM EDT 1,685.02 1,274.05 0
4/22/2018 11 AM EDT 1,685.07 1,273.87 51
4/22/2018 12 PM EDT 1,685.12 1,273.60 31
4/22/2018 1 PM EDT 1,685.14 1,273.41 0
4/22/2018 2 PM EDT 1,685.16 1,273.21 0
4/22/2018 3 PM EDT 1,685.21 1,273.03 0
4/22/2018 4 PM EDT 1,685.24 1,272.88 0
4/22/2018 5 PM EDT 1,685.28 1,272.75 0
4/22/2018 6 PM EDT 1,685.32 1,272.67 0
4/22/2018 7 PM EDT 1,685.33 1,275.30 199
4/22/2018 8 PM EDT 1,685.36 1,279.14 5,680
4/22/2018 9 PM EDT 1,685.35 1,279.72 6,151
4/22/2018 10 PM EDT 1,685.30 1,278.76 5,915
4/22/2018 11 PM EDT 1,685.33 1,276.87 2,802
4/23/2018 12 AM EDT 1,685.37 1,273.81 70
4/23/2018 1 AM EDT 1,685.38 1,273.48 0
4/23/2018 2 AM EDT 1,685.43 1,273.23 0
4/23/2018 3 AM EDT 1,685.45 1,273.03 0
4/23/2018 4 AM EDT 1,685.50 1,272.88 0
4/23/2018 5 AM EDT 1,685.56 1,272.75 0
4/23/2018 6 AM EDT 1,685.55 1,272.68 0
4/23/2018 7 AM EDT 1,685.63 1,272.64 0
4/23/2018 8 AM EDT 1,685.64 1,272.63 0
4/23/2018 9 AM EDT 1,685.73 1,272.61 0
4/23/2018 10 AM EDT 1,685.78 1,272.63 70
4/23/2018 11 AM EDT 1,685.79 1,272.64 0
4/23/2018 12 PM EDT 1,685.84 1,272.67 0
4/23/2018 1 PM EDT 1,685.89 1,272.71 0
4/23/2018 2 PM EDT 1,685.95 1,272.77 0
4/23/2018 3 PM EDT 1,685.97 1,272.86 0
4/23/2018 4 PM EDT 1,686.04 1,272.93 0
4/23/2018 5 PM EDT 1,686.11 1,273.00 0
4/23/2018 6 PM EDT 1,686.15 1,275.11 138
4/23/2018 7 PM EDT 1,686.17 1,277.55 2,871
4/23/2018 8 PM EDT 1,686.20 1,279.09 5,579
4/23/2018 9 PM EDT 1,686.21 1,278.94 5,698
4/23/2018 10 PM EDT 1,686.23 1,279.04 5,459
4/23/2018 11 PM EDT 1,686.31 1,275.27 121
4/24/2018 12 AM EDT 1,686.40 1,274.86 0
4/24/2018 1 AM EDT 1,686.46 1,274.56 0
4/24/2018 2 AM EDT 1,686.51 1,274.24 0
4/24/2018 3 AM EDT 1,686.59 1,273.96 0
4/24/2018 4 AM EDT 1,686.69 1,273.76 0
4/24/2018 5 AM EDT 1,686.75 1,273.58 0
4/24/2018 6 AM EDT 1,686.82 1,273.42 0
4/24/2018 7 AM EDT 1,686.92 1,273.28 0
4/24/2018 8 AM EDT 1,687.01 1,273.43 0
4/24/2018 9 AM EDT 1,687.07 1,273.55 21
4/24/2018 10 AM EDT 1,687.16 1,273.77 7
4/24/2018 11 AM EDT 1,687.28 1,273.88 0
4/24/2018 12 PM EDT 1,687.43 1,273.97 0
4/24/2018 1 PM EDT 1,687.52 1,274.09 0
4/24/2018 2 PM EDT 1,687.62 1,274.18 0
4/24/2018 3 PM EDT 1,687.72 1,274.20 0
4/24/2018 4 PM EDT 1,687.82 1,274.28 4
4/24/2018 5 PM EDT 1,687.90 1,274.40 0
4/24/2018 6 PM EDT 1,687.99 1,274.57 0
4/24/2018 7 PM EDT 1,688.10 1,275.94 148
4/24/2018 8 PM EDT 1,688.16 1,277.42 2,797
4/24/2018 9 PM EDT 1,688.22 1,280.50 8,136
4/24/2018 10 PM EDT 1,688.24 1,280.40 8,078

Elevations are in feet above sea level. Discharges are in cubic feet per second and are reported at the end of the hour.